College Station, TX

1:16 PM CDT on September 16, 2014 (GMT -0500)
Easterwood | Change Station
CLOSE
Current Station
Airport
Location: College Station,
Elevation: 328 ft
Nearby Weather Stations

Elev 328 ft 30.59 °N, 96.36 °W | Updated 23 minutes ago

Clear
Clear
88 °F
Feels Like 96 °F
N
8
Wind Variable Wind from ENE

Today
High -- | Low -- °F
--% Chance of Precip.
Yesterday
High -- | Low -- °F
Precip. -- in
7:10 AM 7:29 PM
Last Quarter, 43% visible
Pressure 30.02 in
Visibility 10.0 miles
Clouds Few 3000 ft
Heat Index 96 °F
Dew Point 73 °F
Humidity 61%
Rainfall 0.00 in
Snow Depth Not available.
UV 9 out of 12
Pollen 8.70 out of 12
Air Quality Not available.
Flu Activity Not available.
METAR KCLL 161753Z 06007KT 10SM FEW030 31/23 A3004 RMK AO2 SLP165 T03110228 10317 20239 58018

More Conditions Fewer Conditions

Pressure 30.02 in
Visibility 10.0 miles
Clouds Few 3000 ft
Heat Index 96 °F
Dew Point 73 °F
Humidity 61%
Rainfall 0.00 in
Snow Depth Not available.
UV 9 out of 12
Pollen 8.70 out of 12
Air Quality Not available.
Flu Activity Not available.
METAR KCLL 161753Z 06007KT 10SM FEW030 31/23 A3004 RMK AO2 SLP165 T03110228 10317 20239 58018

More Conditions Fewer Conditions

10-Day Weather Forecast

Almanac

Astronomy

Sep. 16, 2014 Rise Set
Actual Time 7:10 AM CDT 7:29 PM CDT
Civil Twilight 6:46 AM CDT 7:53 PM CDT
Nautical Twilight 6:18 AM CDT 8:21 PM CDT
Astronomical Twilight 5:49 AM CDT 8:50 PM CDT
Moon 12:38 AM CDT 2:36 PM CDT
Length of Visible Light 13h 07m
Length of Day
12h 19m
Tomorrow will be 1m 49s shorter.
Last Quarter, 43% of the Moon is Illuminated
Today
Last Quarter
Sep 24
New
Oct 1
First Quarter
Oct 8
Full
Oct 15
Last Quarter

Today's Extremes

State Highs State Lows

Community

WunderPhotos

Upload Photos

1,753,850 photos uploaded!

WunderBlogs® & News

Nearby

Snow Depth

Station Depth Elevation
No new snow has been reported.

Earthquake Activity

City Distance Mag. Time & Date
No recent earthquake activity has been reported nearby.
Minimum magnitude displayed is 2.5.

Coastal Water Temperatures

Place Temperature
No Stations Reporting

Nearby Weather Stations